Yuho Maru No.3 — JD2491 — position and weather

sailwx.info

Track history (hours):
 
Tides and Currents Weather Stations Pressure Air Temp Water Temp Dewpoint Dewpoint Depression Visibility Wind Speed Wind Dir Waves Ship Positions

Yuho Maru No.3

Last reported at 2014-Oct-17 08:07 UTC. Time now 2014-Oct-22 23:17 UTC.
Position N 35°10' E 139°44'.

Length 65 m; draft 4.2 m.

Type: Tanker. MMSI: 431000336.

Date/timePositionNaut miles runAvg speedWind from/ knotsBaromVisibWave heightAir tempDewpointWater temp
2014-Oct-17 08:07N 35°10' E 139°44'711.8
2014-Oct-17 07:30N 35°17' E 139°45'1010.4
2014-Oct-17 06:33N 35°27' E 139°46'5 5.2
2014-Oct-17 05:32N 35°30' E 139°51'9 1.6
2014-Oct-16 23:28N 35°31' E 140°02'9 4.1
2014-Oct-16 21:15N 35°28' E 139°52'811.6
2014-Oct-16 20:34N 35°22' E 139°45'1110.7
2014-Oct-16 19:34N 35°11' E 139°46'4 0.1
2014-Oct-15 07:30N 35°08' E 139°43'1110.6
2014-Oct-15 06:29N 35°19' E 139°43'910.2
2014-Oct-15 05:33N 35°28' E 139°48'9 1.8
2014-Oct-15 00:29N 35°31' E 139°58'9 9.9
2014-Oct-14 23:33N 35°37' E 139°50'3 2.9
2014-Oct-14 22:33N 35°35' E 139°52'1 1.0
2014-Oct-14 21:34N 35°35' E 139°53'0 0.0
2014-Oct-14 05:26N 35°35' E 139°53'5 5.2
2014-Oct-14 04:27N 35°31' E 139°58'2 1.8
2014-Oct-14 03:26N 35°30' E 140°00'0 0.0
2014-Oct-14 01:34N 35°30' E 140°00'0 0.0
2014-Oct-14 00:32N 35°30' E 140°00'7 0.2
2014-Oct-12 19:27N 35°35' E 139°54'0 0.0
2014-Oct-12 18:33N 35°35' E 139°54'0 0.0
2014-Oct-12 17:33N 35°35' E 139°54'0 0.0
2014-Oct-12 09:11N 35°35' E 139°54'0 0.1
2014-Oct-12 08:33N 35°35' E 139°54'0 0.0
2014-Oct-12 07:33N 35°35' E 139°54'0 0.0
2014-Oct-12 06:28N 35°35' E 139°54'0 0.0
2014-Oct-12 04:28N 35°35' E 139°54'0 0.0
2014-Oct-12 03:20N 35°35' E 139°54'0 0.0
2014-Oct-11 09:16N 35°35' E 139°54'0 0.0
2014-Oct-11 08:08N 35°35' E 139°54'0 0.0
2014-Oct-11 07:33N 35°35' E 139°54'7 0.2
2014-Oct-10 03:17N 35°34' E 140°02'12 2.1
2014-Oct-09 21:33N 35°27' E 139°50'1110.7
2014-Oct-09 20:33N 35°17' E 139°46'371 9.2
2014-Oct-08 04:23N 34°07' E 132°23'1011.4
2014-Oct-08 03:32N 34°14' E 132°15'1 1.0
2014-Oct-08 02:33N 34°14' E 132°14'0 0.0
2014-Oct-08 01:33N 34°14' E 132°14'0 0.0
2014-Oct-08 00:34N 34°14' E 132°14'0 0.0
2014-Oct-07 23:33N 34°14' E 132°14'1 0.9
2014-Oct-07 22:33N 34°14' E 132°15'4 3.8
2014-Oct-07 21:31N 34°10' E 132°18'0 0.0
2014-Oct-07 20:14N 34°10' E 132°18'0 0.0
2014-Oct-07 18:29N 34°10' E 132°18'0 0.0
2014-Oct-07 17:33N 34°10' E 132°18'0 0.0
2014-Oct-07 16:31N 34°10' E 132°18'0 0.0
2014-Oct-07 15:33N 34°10' E 132°18'0 0.0
2014-Oct-07 14:33N 34°10' E 132°18'0 0.0
2014-Oct-07 13:33N 34°10' E 132°18'0 0.0
2014-Oct-07 12:27N 34°10' E 132°18'  
Track history (hours):
 
Tides and Currents Weather Stations Pressure Air Temp Water Temp Dewpoint Dewpoint Depression Visibility Wind Speed Wind Dir Waves Ship Positions

Yuho Maru No.3

Last reported at 2014-Oct-17 08:07 UTC. Time now 2014-Oct-22 23:17 UTC.
Position N 35°10' E 139°44'.

Length 65 m; draft 4.2 m.

Type: Tanker. MMSI: 431000336.

Date/timePositionNaut miles runAvg speedWind from/ knotsBaromVisibWave heightAir tempDewpointWater temp
2014-Oct-17 08:07N 35°10' E 139°44'711.8
2014-Oct-17 07:30N 35°17' E 139°45'1010.4
2014-Oct-17 06:33N 35°27' E 139°46'5 5.2
2014-Oct-17 05:32N 35°30' E 139°51'9 1.6
2014-Oct-16 23:28N 35°31' E 140°02'9 4.1
2014-Oct-16 21:15N 35°28' E 139°52'811.6
2014-Oct-16 20:34N 35°22' E 139°45'1110.7
2014-Oct-16 19:34N 35°11' E 139°46'4 0.1
2014-Oct-15 07:30N 35°08' E 139°43'1110.6
2014-Oct-15 06:29N 35°19' E 139°43'910.2
2014-Oct-15 05:33N 35°28' E 139°48'9 1.8
2014-Oct-15 00:29N 35°31' E 139°58'9 9.9
2014-Oct-14 23:33N 35°37' E 139°50'3 2.9
2014-Oct-14 22:33N 35°35' E 139°52'1 1.0
2014-Oct-14 21:34N 35°35' E 139°53'0 0.0
2014-Oct-14 05:26N 35°35' E 139°53'5 5.2
2014-Oct-14 04:27N 35°31' E 139°58'2 1.8
2014-Oct-14 03:26N 35°30' E 140°00'0 0.0
2014-Oct-14 01:34N 35°30' E 140°00'0 0.0
2014-Oct-14 00:32N 35°30' E 140°00'7 0.2
2014-Oct-12 19:27N 35°35' E 139°54'0 0.0
2014-Oct-12 18:33N 35°35' E 139°54'0 0.0
2014-Oct-12 17:33N 35°35' E 139°54'0 0.0
2014-Oct-12 09:11N 35°35' E 139°54'0 0.1
2014-Oct-12 08:33N 35°35' E 139°54'0 0.0
2014-Oct-12 07:33N 35°35' E 139°54'0 0.0
2014-Oct-12 06:28N 35°35' E 139°54'0 0.0
2014-Oct-12 04:28N 35°35' E 139°54'0 0.0
2014-Oct-12 03:20N 35°35' E 139°54'0 0.0
2014-Oct-11 09:16N 35°35' E 139°54'0 0.0
2014-Oct-11 08:08N 35°35' E 139°54'0 0.0
2014-Oct-11 07:33N 35°35' E 139°54'7 0.2
2014-Oct-10 03:17N 35°34' E 140°02'12 2.1
2014-Oct-09 21:33N 35°27' E 139°50'1110.7
2014-Oct-09 20:33N 35°17' E 139°46'371 9.2
2014-Oct-08 04:23N 34°07' E 132°23'1011.4
2014-Oct-08 03:32N 34°14' E 132°15'1 1.0
2014-Oct-08 02:33N 34°14' E 132°14'0 0.0
2014-Oct-08 01:33N 34°14' E 132°14'0 0.0
2014-Oct-08 00:34N 34°14' E 132°14'0 0.0
2014-Oct-07 23:33N 34°14' E 132°14'1 0.9
2014-Oct-07 22:33N 34°14' E 132°15'4 3.8
2014-Oct-07 21:31N 34°10' E 132°18'0 0.0
2014-Oct-07 20:14N 34°10' E 132°18'0 0.0
2014-Oct-07 18:29N 34°10' E 132°18'0 0.0
2014-Oct-07 17:33N 34°10' E 132°18'0 0.0
2014-Oct-07 16:31N 34°10' E 132°18'0 0.0
2014-Oct-07 15:33N 34°10' E 132°18'0 0.0
2014-Oct-07 14:33N 34°10' E 132°18'0 0.0
2014-Oct-07 13:33N 34°10' E 132°18'0 0.0
2014-Oct-07 12:27N 34°10' E 132°18'  

Dump ship's entire track history